< < Back
Terminal Aerodrome Forecast


Current Version              Previous Versions:   1  2  3  4  5  6  7  8  9  

Terminal Aerodrome Forecast

526
FTUS42 KJAX 311700
TAFJAX
TAF
KJAX 311729Z 3118/0118 16005KT P6SM SCT070 SCT250
     FM311900 12008KT P6SM BKN070
     FM010100 VRB03KT P6SM FEW015 SCT070=



Latest METAR

025
SAUS80 KWBC 010900 RRI
MTRJAX
METAR KJAX 010856Z 00000KT 10SM FEW250 24/24 A2993 RMK AO2 SLP136
T02440239 56011


USA.gov is the U.S. government's official web portal to all federal, state and local government web resources and services.